Time;durP1;ratioP1;P1;durP2;ratioP2;P2;SDS_P1;SDS_P2;PMS_P1;PMS_P2;Temp;Humidity;BMP_temperature;BMP_pressure;BME280_temperature;BME280_humidity;BME280_pressure;Samples;Min_cycle;Max_cycle;Signal;HPM_P1;HPM_P2
2022/06/27 00:00:20;;;;;;;;;;;23.60;62.90;;;;;;6095974;23;20266;-81
2022/06/27 00:02:47;;;;;;;;;;;23.70;62.80;;;;;;6096369;23;19945;-81
2022/06/27 00:05:14;;;;;;;;;;;23.70;62.90;;;;;;6095820;23;20258;-80
2022/06/27 00:07:41;;;;;;;;;;;23.70;62.70;;;;;;6095250;23;19925;-81
2022/06/27 00:10:08;;;;;;;;;;;23.70;62.90;;;;;;6095870;23;19989;-80
2022/06/27 00:12:35;;;;;;;;;;;23.70;63.00;;;;;;6096211;23;19925;-80
2022/06/27 00:15:03;;;;;;;;;;;23.70;62.90;;;;;;6083957;23;19976;-81
2022/06/27 00:17:30;;;;;;;;;;;23.60;63.30;;;;;;6095644;23;19924;-81
2022/06/27 00:19:58;;;;;;;;;;;23.60;63.20;;;;;;6083725;23;19921;-81
2022/06/27 00:22:26;;;;;;;;;;;23.50;63.20;;;;;;6094482;23;19925;-81
2022/06/27 00:24:53;;;;;;;;;;;23.50;63.20;;;;;;6111886;23;20286;-81
2022/06/27 00:27:20;;;;;;;;;;;23.50;63.20;;;;;;6100703;23;19921;-81
2022/06/27 00:29:46;;;;;;;;;;;23.50;62.90;;;;;;6125179;23;19972;-81
2022/06/27 00:32:13;;;;;;;;;;;23.50;63.20;;;;;;6116535;23;19960;-80
2022/06/27 00:34:40;;;;;;;;;;;23.50;63.10;;;;;;6095732;23;19928;-80
2022/06/27 00:37:07;;;;;;;;;;;23.50;63.40;;;;;;6117672;23;19976;-80
2022/06/27 00:39:34;;;;;;;;;;;23.50;63.20;;;;;;6095766;23;19972;-80
2022/06/27 00:42:01;;;;;;;;;;;23.50;62.70;;;;;;6099648;23;20455;-80
2022/06/27 00:44:29;;;;;;;;;;;23.50;62.20;;;;;;6114142;23;19929;-80
2022/06/27 00:46:55;;;;;;;;;;;23.60;61.90;;;;;;6098085;23;19925;-80
2022/06/27 00:49:22;;;;;;;;;;;23.60;62.30;;;;;;6115361;23;19921;-80
2022/06/27 00:51:49;;;;;;;;;;;23.60;62.30;;;;;;6096913;23;19925;-80
2022/06/27 00:54:15;;;;;;;;;;;23.60;62.60;;;;;;6125776;23;19948;-81
2022/06/27 00:56:42;;;;;;;;;;;23.60;62.90;;;;;;6099099;23;19920;-82
2022/06/27 00:59:09;;;;;;;;;;;23.60;63.00;;;;;;6118358;23;20042;-81
2022/06/27 01:01:36;;;;;;;;;;;23.60;62.70;;;;;;6095377;23;19921;-80
2022/06/27 01:04:03;;;;;;;;;;;23.60;62.70;;;;;;6099530;23;19940;-80
2022/06/27 01:06:30;;;;;;;;;;;23.60;62.70;;;;;;6113978;23;19936;-80
2022/06/27 01:08:57;;;;;;;;;;;23.60;62.00;;;;;;6098101;23;19976;-79
2022/06/27 01:11:24;;;;;;;;;;;23.60;62.20;;;;;;6115125;23;19921;-80
2022/06/27 01:13:51;;;;;;;;;;;23.60;62.40;;;;;;6096584;23;19974;-80
2022/06/27 01:16:18;;;;;;;;;;;23.60;62.50;;;;;;6125324;23;20396;-81
2022/06/27 01:18:45;;;;;;;;;;;23.60;62.40;;;;;;6099585;23;19921;-81
2022/06/27 01:21:22;;;;;;;;;;;23.60;62.60;;;;;;6118110;23;19925;-79
2022/06/27 01:23:50;;;;;;;;;;;23.60;62.50;;;;;;6121638;23;19921;-80
2022/06/27 01:26:17;;;;;;;;;;;23.50;62.60;;;;;;6117170;23;19977;-79
2022/06/27 01:28:44;;;;;;;;;;;23.50;62.50;;;;;;6094363;23;19971;-80
2022/06/27 01:31:15;;;;;;;;;;;23.50;62.80;;;;;;6118706;23;19973;-79
2022/06/27 01:33:42;;;;;;;;;;;23.50;62.90;;;;;;6119532;23;19948;-80
2022/06/27 01:38:55;;;;;;;;;;;23.50;62.80;;;;;;6095314;23;20306;-79
2022/06/27 01:41:21;;;;;;;;;;;23.50;62.90;;;;;;6094663;23;20299;-81
2022/06/27 01:43:48;;;;;;;;;;;23.50;62.90;;;;;;6093979;23;20445;-80
2022/06/27 01:46:16;;;;;;;;;;;23.50;62.90;;;;;;6095997;23;19929;-80
2022/06/27 01:48:43;;;;;;;;;;;23.50;63.10;;;;;;6071270;23;19921;-79
2022/06/27 01:51:11;;;;;;;;;;;23.40;63.30;;;;;;6070649;23;20678;-80
2022/06/27 01:53:38;;;;;;;;;;;23.40;63.90;;;;;;6094588;23;19921;-80
2022/06/27 01:56:05;;;;;;;;;;;23.30;64.00;;;;;;6093520;23;19925;-80
2022/06/27 01:58:33;;;;;;;;;;;23.30;64.40;;;;;;6094386;23;19922;-80
2022/06/27 02:01:00;;;;;;;;;;;23.20;65.00;;;;;;6093711;23;19937;-80
2022/06/27 02:03:27;;;;;;;;;;;23.20;65.50;;;;;;6094657;23;19945;-80
2022/06/27 02:05:54;;;;;;;;;;;23.20;66.00;;;;;;6093854;23;19969;-81
2022/06/27 02:08:21;;;;;;;;;;;23.10;65.60;;;;;;6094601;23;19945;-79
2022/06/27 02:10:49;;;;;;;;;;;23.10;65.00;;;;;;6094070;23;20346;-81
2022/06/27 02:13:15;;;;;;;;;;;23.10;65.00;;;;;;6094792;23;19921;-80
2022/06/27 02:16:02;;;;;;;;;;;23.10;65.00;;;;;;6083175;23;19921;-80
2022/06/27 02:18:29;;;;;;;;;;;23.00;65.30;;;;;;6093608;23;20298;-79
2022/06/27 02:20:56;;;;;;;;;;;23.00;66.30;;;;;;6077793;23;20263;-80
2022/06/27 02:23:23;;;;;;;;;;;23.00;68.50;;;;;;6095245;23;19921;-79
2022/06/27 02:25:50;;;;;;;;;;;22.90;68.90;;;;;;6095968;23;19992;-80
2022/06/27 02:28:17;;;;;;;;;;;22.80;70.40;;;;;;6095481;23;19945;-79
2022/06/27 02:30:45;;;;;;;;;;;22.80;71.50;;;;;;6070052;23;20240;-80
2022/06/27 02:33:12;;;;;;;;;;;22.70;72.50;;;;;;6093109;23;19921;-79
2022/06/27 02:35:42;;;;;;;;;;;22.70;72.60;;;;;;6093698;23;19921;-80
2022/06/27 02:38:10;;;;;;;;;;;22.60;73.10;;;;;;6070192;23;19929;-80
2022/06/27 02:40:40;;;;;;;;;;;22.60;73.90;;;;;;6093316;23;19927;-80
2022/06/27 02:43:08;;;;;;;;;;;22.60;74.40;;;;;;6095088;23;19972;-81
2022/06/27 02:45:36;;;;;;;;;;;22.60;74.30;;;;;;6094217;23;19956;-80
2022/06/27 02:48:03;;;;;;;;;;;22.50;74.30;;;;;;6095561;23;19951;-79
2022/06/27 02:50:31;;;;;;;;;;;22.50;74.30;;;;;;6093608;23;19929;-80
2022/06/27 02:53:02;;;;;;;;;;;22.50;76.20;;;;;;6093956;23;20260;-79
2022/06/27 02:55:34;;;;;;;;;;;22.40;76.20;;;;;;6093562;23;19954;-79
2022/06/27 02:58:05;;;;;;;;;;;22.40;76.20;;;;;;6094144;23;19928;-79
2022/06/27 03:00:32;;;;;;;;;;;22.40;75.80;;;;;;6098635;23;19921;-80
2022/06/27 03:02:59;;;;;;;;;;;22.40;75.70;;;;;;6100904;23;19929;-80
2022/06/27 03:05:27;;;;;;;;;;;22.30;75.60;;;;;;6093674;23;19921;-79
2022/06/27 03:07:53;;;;;;;;;;;22.30;75.80;;;;;;6094237;23;19981;-80
2022/06/27 03:10:20;;;;;;;;;;;22.30;76.70;;;;;;6093181;23;19925;-79
2022/06/27 03:12:47;;;;;;;;;;;22.20;77.50;;;;;;6095273;23;19922;-80
2022/06/27 03:15:14;;;;;;;;;;;22.10;77.20;;;;;;6093378;23;19952;-79
2022/06/27 03:17:41;;;;;;;;;;;22.00;78.70;;;;;;6070209;23;19921;-80
2022/06/27 03:20:08;;;;;;;;;;;22.00;78.30;;;;;;6093946;23;19941;-80
2022/06/27 03:22:35;;;;;;;;;;;21.90;78.30;;;;;;6095266;23;19932;-80
2022/06/27 03:25:01;;;;;;;;;;;21.90;78.20;;;;;;6094377;23;19973;-80
2022/06/27 03:27:28;;;;;;;;;;;21.90;78.20;;;;;;6093449;23;20398;-80
2022/06/27 03:29:55;;;;;;;;;;;21.90;78.40;;;;;;6094435;23;19925;-80
2022/06/27 03:32:22;;;;;;;;;;;21.80;78.70;;;;;;6093910;23;19925;-79
2022/06/27 03:34:48;;;;;;;;;;;21.80;79.00;;;;;;6094195;23;19921;-80
2022/06/27 03:37:16;;;;;;;;;;;21.70;78.90;;;;;;6093855;23;19921;-80
2022/06/27 03:39:42;;;;;;;;;;;21.70;79.20;;;;;;6094530;23;19921;-80
2022/06/27 03:42:09;;;;;;;;;;;21.60;79.50;;;;;;6093939;23;20445;-80
2022/06/27 03:44:36;;;;;;;;;;;21.60;80.00;;;;;;6123092;23;19921;-80
2022/06/27 03:47:03;;;;;;;;;;;21.60;80.50;;;;;;6099027;23;20290;-80
2022/06/27 03:52:15;;;;;;;;;;;21.40;81.50;;;;;;6124052;23;19924;-80
2022/06/27 03:54:42;;;;;;;;;;;21.40;81.80;;;;;;6117301;23;19968;-80
2022/06/27 03:57:09;;;;;;;;;;;21.40;81.80;;;;;;6093360;23;19921;-80
2022/06/27 03:59:35;;;;;;;;;;;21.30;82.40;;;;;;6074487;23;19921;-80
2022/06/27 04:02:02;;;;;;;;;;;21.30;82.40;;;;;;6112932;23;19925;-80
2022/06/27 04:04:29;;;;;;;;;;;21.30;82.60;;;;;;6123198;23;19921;-80
2022/06/27 04:06:56;;;;;;;;;;;21.30;82.80;;;;;;6100641;23;20338;-80
2022/06/27 04:09:23;;;;;;;;;;;21.30;82.90;;;;;;6098112;23;20408;-80
2022/06/27 04:11:50;;;;;;;;;;;21.30;82.80;;;;;;6095620;23;19921;-80
2022/06/27 04:14:17;;;;;;;;;;;21.30;82.80;;;;;;6096438;23;19921;-80
2022/06/27 04:16:43;;;;;;;;;;;21.40;83.10;;;;;;6095759;23;20306;-80
2022/06/27 04:19:10;;;;;;;;;;;21.40;84.10;;;;;;6095769;23;19925;-80
2022/06/27 04:21:37;;;;;;;;;;;21.40;83.10;;;;;;6095186;23;19921;-80
2022/06/27 04:24:04;;;;;;;;;;;21.40;83.20;;;;;;6095707;23;19921;-81
2022/06/27 04:26:31;;;;;;;;;;;21.40;83.40;;;;;;6095317;23;19925;-80
2022/06/27 04:28:58;;;;;;;;;;;21.50;83.60;;;;;;6095536;23;19985;-80
2022/06/27 04:31:24;;;;;;;;;;;21.50;84.00;;;;;;6094898;23;19977;-80
2022/06/27 04:33:51;;;;;;;;;;;21.50;84.70;;;;;;6095442;23;19925;-80
2022/06/27 04:36:18;;;;;;;;;;;21.50;84.30;;;;;;6094857;23;19945;-80
2022/06/27 04:38:46;;;;;;;;;;;21.60;84.20;;;;;;6096937;23;19925;-80
2022/06/27 04:41:13;;;;;;;;;;;21.60;83.80;;;;;;6095361;23;19952;-80
2022/06/27 04:43:39;;;;;;;;;;;21.60;83.40;;;;;;6123934;23;19996;-80
2022/06/27 04:46:06;;;;;;;;;;;21.60;82.80;;;;;;6114407;23;20299;-80
2022/06/27 04:48:34;;;;;;;;;;;21.70;82.20;;;;;;6098413;23;20338;-80
2022/06/27 04:51:02;;;;;;;;;;;21.70;81.90;;;;;;6102965;23;20346;-80
2022/06/27 04:53:30;;;;;;;;;;;21.70;81.90;;;;;;6109815;23;20324;-80
2022/06/27 04:55:57;;;;;;;;;;;21.70;81.70;;;;;;6115964;23;19936;-80
2022/06/27 04:58:24;;;;;;;;;;;21.70;81.80;;;;;;6096372;23;19921;-80
2022/06/27 05:00:51;;;;;;;;;;;21.70;82.00;;;;;;6117662;23;19925;-80
2022/06/27 05:03:22;;;;;;;;;;;21.70;81.90;;;;;;6094857;23;19927;-80
2022/06/27 05:05:52;;;;;;;;;;;21.70;81.50;;;;;;6118127;23;19925;-80
2022/06/27 05:08:20;;;;;;;;;;;21.80;80.10;;;;;;6095096;23;19992;-80
2022/06/27 05:10:47;;;;;;;;;;;21.90;79.30;;;;;;6100656;23;19921;-81
2022/06/27 05:13:14;;;;;;;;;;;21.80;78.90;;;;;;6113059;23;20385;-80
2022/06/27 05:15:41;;;;;;;;;;;21.90;78.50;;;;;;6098742;23;20330;-80
2022/06/27 05:18:08;;;;;;;;;;;21.90;77.50;;;;;;6113228;23;19925;-80
2022/06/27 05:20:34;;;;;;;;;;;22.00;77.00;;;;;;6097595;23;19925;-80
2022/06/27 05:23:01;;;;;;;;;;;22.00;76.50;;;;;;6115400;23;19921;-81
2022/06/27 05:25:28;;;;;;;;;;;22.10;76.20;;;;;;6096468;23;19960;-80
2022/06/27 05:27:56;;;;;;;;;;;22.10;75.90;;;;;;6116882;23;19925;-80
2022/06/27 05:30:23;;;;;;;;;;;22.20;75.80;;;;;;6095173;23;19928;-80
2022/06/27 05:32:49;;;;;;;;;;;22.20;75.80;;;;;;6117412;23;19956;-80
2022/06/27 05:35:16;;;;;;;;;;;22.20;75.70;;;;;;6094674;23;19980;-80
2022/06/27 05:37:44;;;;;;;;;;;22.30;75.70;;;;;;6075189;23;19921;-80
2022/06/27 05:40:10;;;;;;;;;;;22.30;75.70;;;;;;6114254;23;20346;-80
2022/06/27 05:42:37;;;;;;;;;;;22.40;75.70;;;;;;6097750;23;19920;-80
2022/06/27 05:45:04;;;;;;;;;;;22.40;75.70;;;;;;6114909;23;19948;-80
2022/06/27 05:47:31;;;;;;;;;;;22.50;75.50;;;;;;6082123;23;19969;-80
2022/06/27 05:50:03;;;;;;;;;;;22.50;75.30;;;;;;6090184;23;20350;-80
2022/06/27 05:52:30;;;;;;;;;;;22.60;75.20;;;;;;6096653;23;19959;-80
2022/06/27 05:54:59;;;;;;;;;;;22.70;74.70;;;;;;6070895;23;19921;-80
2022/06/27 05:57:27;;;;;;;;;;;22.70;74.60;;;;;;6093932;23;19925;-80
2022/06/27 05:59:55;;;;;;;;;;;22.80;74.40;;;;;;6094852;23;20342;-80
2022/06/27 06:02:28;;;;;;;;;;;22.80;73.70;;;;;;6093879;23;19977;-80
2022/06/27 06:04:56;;;;;;;;;;;22.90;73.30;;;;;;6095086;23;19992;-81
2022/06/27 06:07:23;;;;;;;;;;;23.00;73.30;;;;;;6094697;23;19922;-81
2022/06/27 06:09:49;;;;;;;;;;;23.10;73.10;;;;;;6123678;23;19921;-80
2022/06/27 06:12:18;;;;;;;;;;;23.10;73.30;;;;;;6113383;23;20452;-80
2022/06/27 06:14:47;;;;;;;;;;;23.10;73.10;;;;;;6097768;23;20317;-80
2022/06/27 06:17:14;;;;;;;;;;;23.20;72.80;;;;;;6113137;23;20398;-80
2022/06/27 06:19:41;;;;;;;;;;;23.30;72.40;;;;;;6096945;23;19932;-80
2022/06/27 06:22:08;;;;;;;;;;;23.30;72.70;;;;;;6114948;23;20361;-80
2022/06/27 06:24:35;;;;;;;;;;;23.40;71.40;;;;;;6095447;23;19929;-80
2022/06/27 06:27:08;;;;;;;;;;;23.40;70.90;;;;;;6100227;23;19932;-80
2022/06/27 06:29:35;;;;;;;;;;;23.60;70.30;;;;;;6110738;23;19976;-80
2022/06/27 06:32:02;;;;;;;;;;;23.60;70.00;;;;;;6104536;23;19981;-80
2022/06/27 06:34:33;;;;;;;;;;;23.70;69.90;;;;;;6106821;23;19927;-80
2022/06/27 06:37:00;;;;;;;;;;;23.80;70.40;;;;;;6117661;23;19925;-80
2022/06/27 06:39:26;;;;;;;;;;;23.90;70.50;;;;;;6119163;23;19928;-80
2022/06/27 06:41:54;;;;;;;;;;;24.00;70.00;;;;;;6110498;23;19925;-80
2022/06/27 06:44:21;;;;;;;;;;;24.10;69.10;;;;;;6113223;23;19925;-80
2022/06/27 06:46:48;;;;;;;;;;;24.30;69.10;;;;;;6096331;23;19925;-79
2022/06/27 06:49:15;;;;;;;;;;;24.40;68.90;;;;;;6113599;23;19926;-80
2022/06/27 06:51:44;;;;;;;;;;;24.50;69.30;;;;;;6094788;23;19928;-81
2022/06/27 06:54:12;;;;;;;;;;;24.60;69.10;;;;;;6114901;23;20302;-80
2022/06/27 06:56:39;;;;;;;;;;;24.80;69.20;;;;;;6094852;23;19921;-81
2022/06/27 06:59:07;;;;;;;;;;;24.90;69.50;;;;;;6116912;23;19921;-80
2022/06/27 07:01:35;;;;;;;;;;;25.10;69.10;;;;;;6119342;23;19921;-80
2022/06/27 07:04:02;;;;;;;;;;;25.20;68.50;;;;;;6117397;23;19928;-80
2022/06/27 07:06:30;;;;;;;;;;;25.30;68.50;;;;;;6093250;23;19995;-80
2022/06/27 07:08:59;;;;;;;;;;;25.40;68.70;;;;;;6074452;23;19988;-80
2022/06/27 07:11:28;;;;;;;;;;;25.50;68.10;;;;;;6112805;23;19993;-80
2022/06/27 07:13:56;;;;;;;;;;;25.70;66.50;;;;;;6096989;23;20372;-80
2022/06/27 07:16:24;;;;;;;;;;;25.80;66.60;;;;;;6098939;23;19921;-80
2022/06/27 07:18:53;;;;;;;;;;;25.90;68.30;;;;;;6095441;23;19928;-80
2022/06/27 07:21:22;;;;;;;;;;;25.90;67.70;;;;;;6095421;23;19947;-80
2022/06/27 07:23:50;;;;;;;;;;;26.10;67.80;;;;;;6093714;23;19980;-80
2022/06/27 07:26:19;;;;;;;;;;;26.30;67.20;;;;;;6093850;23;19921;-80
2022/06/27 07:28:46;;;;;;;;;;;26.40;65.60;;;;;;6093462;23;19921;-80
2022/06/27 07:31:13;;;;;;;;;;;26.40;64.80;;;;;;6094463;23;20343;-80
2022/06/27 07:33:45;;;;;;;;;;;26.60;62.20;;;;;;6093759;23;19989;-80
2022/06/27 07:36:15;;;;;;;;;;;26.80;60.00;;;;;;6093796;23;20339;-80
2022/06/27 07:38:43;;;;;;;;;;;26.90;60.10;;;;;;6093885;23;20306;-80
2022/06/27 07:41:10;;;;;;;;;;;27.00;60.70;;;;;;6095661;23;19933;-80
2022/06/27 07:43:37;;;;;;;;;;;27.10;59.50;;;;;;6097114;23;19996;-80
2022/06/27 07:46:04;;;;;;;;;;;27.30;58.60;;;;;;6119684;23;20794;-80
2022/06/27 07:48:32;;;;;;;;;;;27.40;58.30;;;;;;6094592;23;19944;-79
2022/06/27 07:50:59;;;;;;;;;;;27.50;58.00;;;;;;6124738;23;19921;-79
2022/06/27 07:53:26;;;;;;;;;;;27.70;57.80;;;;;;6126714;23;19924;-79
2022/06/27 07:55:57;;;;;;;;;;;27.80;56.00;;;;;;6111765;23;19925;-79
2022/06/27 07:58:35;;;;;;;;;;;28.00;53.40;;;;;;6126174;23;19921;-79
2022/06/27 08:01:04;;;;;;;;;;;28.10;53.00;;;;;;6111903;23;20394;-79
2022/06/27 08:03:36;;;;;;;;;;;28.30;52.50;;;;;;6115073;23;19921;-79
2022/06/27 08:06:24;;;;;;;;;;;28.40;51.10;;;;;;6098998;23;20322;-79
2022/06/27 08:08:53;;;;;;;;;;;28.50;50.90;;;;;;6088115;23;19922;-79
2022/06/27 08:11:22;;;;;;;;;;;28.60;50.10;;;;;;6117488;23;19929;-79
2022/06/27 08:13:50;;;;;;;;;;;28.70;49.60;;;;;;6096121;23;20301;-79
2022/06/27 08:16:18;;;;;;;;;;;28.80;49.80;;;;;;6117596;23;19945;-79
2022/06/27 08:18:47;;;;;;;;;;;28.90;49.30;;;;;;6095605;23;19952;-79
2022/06/27 08:21:19;;;;;;;;;;;28.90;49.10;;;;;;6118738;23;19996;-79
2022/06/27 08:23:48;;;;;;;;;;;28.90;49.00;;;;;;6095157;23;19921;-79
2022/06/27 08:26:15;;;;;;;;;;;29.00;48.00;;;;;;6118898;23;20355;-79
2022/06/27 08:28:43;;;;;;;;;;;29.00;48.60;;;;;;6120541;23;19976;-80
2022/06/27 08:31:12;;;;;;;;;;;29.20;47.10;;;;;;6123978;23;19932;-80
2022/06/27 08:33:45;;;;;;;;;;;29.30;46.80;;;;;;6126015;23;19921;-78
2022/06/27 08:36:14;;;;;;;;;;;29.30;47.30;;;;;;6107190;23;19921;-79
2022/06/27 08:38:51;;;;;;;;;;;29.50;45.50;;;;;;6118053;23;19924;-80
2022/06/27 08:41:20;;;;;;;;;;;29.50;44.20;;;;;;6111942;23;19992;-80
2022/06/27 08:43:48;;;;;;;;;;;29.60;45.00;;;;;;6113734;23;19921;-79
2022/06/27 08:46:16;;;;;;;;;;;29.70;47.00;;;;;;6098306;23;19929;-80
2022/06/27 08:48:45;;;;;;;;;;;29.80;44.60;;;;;;6101679;23;19921;-80
2022/06/27 08:51:12;;;;;;;;;;;29.90;45.10;;;;;;6110226;23;19935;-80
2022/06/27 08:53:39;;;;;;;;;;;30.00;45.30;;;;;;6114967;23;20013;-80
2022/06/27 08:56:10;;;;;;;;;;;30.10;44.20;;;;;;6096288;23;19921;-80
2022/06/27 08:58:37;;;;;;;;;;;30.20;44.80;;;;;;6115719;23;19973;-79
2022/06/27 09:01:04;;;;;;;;;;;30.10;43.70;;;;;;6096077;23;19920;-79
2022/06/27 09:03:32;;;;;;;;;;;30.10;43.50;;;;;;6126049;23;19955;-79
2022/06/27 09:05:59;;;;;;;;;;;30.10;43.40;;;;;;6111363;23;19988;-80
2022/06/27 09:08:31;;;;;;;;;;;30.10;43.40;;;;;;6100410;23;20000;-79
2022/06/27 09:10:58;;;;;;;;;;;30.20;44.30;;;;;;6098243;23;19921;-79
2022/06/27 09:13:26;;;;;;;;;;;30.50;45.50;;;;;;6107062;23;19921;-79
2022/06/27 09:15:54;;;;;;;;;;;30.60;42.90;;;;;;6095158;23;19951;-79
2022/06/27 09:18:25;;;;;;;;;;;30.80;42.40;;;;;;6111479;23;19928;-79
2022/06/27 09:20:58;;;;;;;;;;;30.70;41.70;;;;;;6113039;23;20346;-79
2022/06/27 09:23:40;;;;;;;;;;;30.40;42.00;;;;;;6098919;23;19992;-79
2022/06/27 09:26:12;;;;;;;;;;;30.30;42.10;;;;;;6099389;23;19921;-79
2022/06/27 09:28:47;;;;;;;;;;;30.30;42.70;;;;;;6116312;23;20286;-79
2022/06/27 09:31:24;;;;;;;;;;;30.30;42.80;;;;;;6096203;23;20294;-79
2022/06/27 09:34:05;;;;;;;;;;;30.40;42.90;;;;;;6099968;23;19921;-79
2022/06/27 09:36:32;;;;;;;;;;;30.50;43.40;;;;;;6099448;23;20302;-79
2022/06/27 09:39:01;;;;;;;;;;;30.70;43.60;;;;;;6113253;23;20406;-79
2022/06/27 09:41:32;;;;;;;;;;;30.90;43.40;;;;;;6123848;23;19921;-79
2022/06/27 09:44:06;;;;;;;;;;;31.00;41.70;;;;;;6125397;23;19956;-79
2022/06/27 09:46:42;;;;;;;;;;;31.00;42.70;;;;;;6123397;23;19921;-80
2022/06/27 09:49:13;;;;;;;;;;;31.10;42.40;;;;;;6110748;23;20355;-79
2022/06/27 09:51:40;;;;;;;;;;;31.10;41.70;;;;;;6117585;23;19949;-79
2022/06/27 09:54:11;;;;;;;;;;;31.00;41.80;;;;;;6119936;23;20302;-79
2022/06/27 09:56:42;;;;;;;;;;;31.00;41.80;;;;;;6112357;23;20301;-79
2022/06/27 09:59:10;;;;;;;;;;;31.10;41.60;;;;;;6113018;23;19921;-80
2022/06/27 10:01:41;;;;;;;;;;;31.10;42.10;;;;;;6098473;23;19928;-79
2022/06/27 10:04:09;;;;;;;;;;;31.20;42.70;;;;;;6124798;23;19921;-80
2022/06/27 10:06:39;;;;;;;;;;;31.20;42.40;;;;;;6111321;23;19920;-80
2022/06/27 10:09:08;;;;;;;;;;;31.20;42.60;;;;;;6113541;23;19921;-80
2022/06/27 10:11:36;;;;;;;;;;;31.30;43.30;;;;;;6081508;23;19929;-80
2022/06/27 10:14:32;;;;;;;;;;;31.30;41.30;;;;;;6070624;23;19929;-79
2022/06/27 10:16:59;;;;;;;;;;;31.30;41.20;;;;;;6094515;23;19921;-80
2022/06/27 10:19:27;;;;;;;;;;;31.20;41.20;;;;;;6113139;23;19997;-79
2022/06/27 10:21:55;;;;;;;;;;;31.30;41.70;;;;;;6097165;23;19929;-80
2022/06/27 10:24:23;;;;;;;;;;;31.40;42.70;;;;;;6114301;23;19928;-80
2022/06/27 10:26:51;;;;;;;;;;;31.60;41.80;;;;;;6095045;23;20338;-80
2022/06/27 10:29:24;;;;;;;;;;;31.50;41.60;;;;;;6114552;23;19922;-80
2022/06/27 10:31:51;;;;;;;;;;;31.40;41.40;;;;;;6095007;23;19922;-80
2022/06/27 10:34:18;;;;;;;;;;;31.60;43.40;;;;;;6099136;23;19952;-80
2022/06/27 10:36:45;;;;;;;;;;;31.70;42.70;;;;;;6110833;23;20295;-80
2022/06/27 10:39:19;;;;;;;;;;;31.80;41.50;;;;;;6115410;23;19976;-80
2022/06/27 10:41:46;;;;;;;;;;;31.90;42.70;;;;;;6094930;23;19970;-80
2022/06/27 10:44:30;;;;;;;;;;;32.10;43.90;;;;;;6115981;23;19937;-80
2022/06/27 10:46:57;;;;;;;;;;;32.20;41.00;;;;;;6081397;23;19932;-80
2022/06/27 10:49:24;;;;;;;;;;;32.40;41.30;;;;;;6070328;23;20019;-80
2022/06/27 10:51:52;;;;;;;;;;;32.50;40.50;;;;;;6096485;23;20282;-80
2022/06/27 10:54:19;;;;;;;;;;;32.40;40.30;;;;;;6124412;23;19921;-80
2022/06/27 10:56:50;;;;;;;;;;;32.30;38.70;;;;;;6110656;23;19925;-80
2022/06/27 10:59:22;;;;;;;;;;;32.30;39.10;;;;;;6114077;23;19996;-80
2022/06/27 11:01:58;;;;;;;;;;;32.20;39.30;;;;;;6093968;23;19921;-80
2022/06/27 11:04:26;;;;;;;;;;;32.10;39.50;;;;;;6124609;23;19929;-80
2022/06/27 11:06:56;;;;;;;;;;;32.10;39.20;;;;;;6110133;23;20302;-80
2022/06/27 11:09:35;;;;;;;;;;;32.10;38.40;;;;;;6114312;23;20342;-80
2022/06/27 11:12:03;;;;;;;;;;;32.10;41.10;;;;;;6098524;23;20231;-79
2022/06/27 11:14:29;;;;;;;;;;;32.10;40.50;;;;;;6126475;23;19990;-80
2022/06/27 11:16:56;;;;;;;;;;;32.10;41.00;;;;;;6100022;23;20326;-79
2022/06/27 11:22:19;;;;;;;;;;;32.10;41.20;;;;;;6125926;23;19921;-79
2022/06/27 11:24:46;;;;;;;;;;;32.10;39.90;;;;;;6099719;23;19922;-80
2022/06/27 11:27:14;;;;;;;;;;;32.10;39.50;;;;;;6107888;23;19969;-80
2022/06/27 11:32:27;;;;;;;;;;;32.20;40.30;;;;;;6125550;23;19925;-79
2022/06/27 11:34:54;;;;;;;;;;;32.30;39.90;;;;;;6126397;23;20004;-80
2022/06/27 11:37:24;;;;;;;;;;;32.50;41.10;;;;;;6125488;23;19927;-79
2022/06/27 11:39:58;;;;;;;;;;;32.70;40.50;;;;;;6126729;23;19976;-80
2022/06/27 11:42:29;;;;;;;;;;;32.70;38.20;;;;;;6125509;23;19925;-80
2022/06/27 11:45:12;;;;;;;;;;;32.70;39.90;;;;;;6114675;23;19922;-79
2022/06/27 11:47:43;;;;;;;;;;;32.80;40.40;;;;;;6095174;23;20227;-80
2022/06/27 11:50:12;;;;;;;;;;;32.80;39.40;;;;;;6077815;23;19929;-80
2022/06/27 11:52:43;;;;;;;;;;;32.80;39.60;;;;;;6119334;23;19921;-80
2022/06/27 11:55:11;;;;;;;;;;;32.80;41.50;;;;;;6083739;23;19929;-80
2022/06/27 11:57:43;;;;;;;;;;;32.90;40.70;;;;;;6095998;23;19922;-79
2022/06/27 12:00:15;;;;;;;;;;;33.10;40.10;;;;;;6071997;23;20437;-80
2022/06/27 12:02:43;;;;;;;;;;;33.20;38.90;;;;;;6071187;23;20004;-80
2022/06/27 12:05:21;;;;;;;;;;;33.20;39.60;;;;;;6095295;23;19988;-80
2022/06/27 12:08:07;;;;;;;;;;;33.20;36.70;;;;;;6124355;23;19921;-80
2022/06/27 12:13:36;;;;;;;;;;;33.50;39.40;;;;;;6100270;23;19921;-79
2022/06/27 12:16:04;;;;;;;;;;;33.70;39.10;;;;;;6116510;23;20029;-80
2022/06/27 12:18:38;;;;;;;;;;;33.90;37.30;;;;;;6095859;23;20641;-79
2022/06/27 12:21:05;;;;;;;;;;;33.90;37.90;;;;;;6115414;23;19933;-78
2022/06/27 12:23:32;;;;;;;;;;;33.80;37.60;;;;;;6081559;23;19921;-79
2022/06/27 12:25:59;;;;;;;;;;;33.70;38.30;;;;;;6117821;23;19921;-79
2022/06/27 12:28:26;;;;;;;;;;;33.80;37.80;;;;;;6094984;23;19928;-79
2022/06/27 12:30:53;;;;;;;;;;;33.70;37.70;;;;;;6111768;23;19924;-79
2022/06/27 12:33:19;;;;;;;;;;;33.80;38.30;;;;;;6114728;23;19928;-80
2022/06/27 12:35:46;;;;;;;;;;;34.00;39.40;;;;;;6098105;23;19921;-79
2022/06/27 12:38:13;;;;;;;;;;;34.10;36.50;;;;;;6103539;23;20279;-79
2022/06/27 12:40:40;;;;;;;;;;;34.10;37.90;;;;;;6108790;23;19925;-78
2022/06/27 12:43:07;;;;;;;;;;;34.10;36.00;;;;;;6116206;23;19978;-79
2022/06/27 12:45:34;;;;;;;;;;;34.00;36.50;;;;;;6095143;23;19925;-79
2022/06/27 12:48:03;;;;;;;;;;;33.90;36.70;;;;;;6100507;23;19928;-79
2022/06/27 12:50:29;;;;;;;;;;;33.80;38.30;;;;;;6098916;23;19921;-79
2022/06/27 12:52:56;;;;;;;;;;;34.10;38.30;;;;;;6095211;23;19921;-79
2022/06/27 12:55:23;;;;;;;;;;;34.20;37.80;;;;;;6095341;23;19925;-79
2022/06/27 12:57:50;;;;;;;;;;;34.20;36.50;;;;;;6094858;23;19933;-80
2022/06/27 13:00:17;;;;;;;;;;;34.30;36.20;;;;;;6095622;23;19925;-80
2022/06/27 13:02:44;;;;;;;;;;;34.40;37.10;;;;;;6094283;23;19948;-81
2022/06/27 13:05:12;;;;;;;;;;;34.50;38.50;;;;;;6094880;23;19921;-80
2022/06/27 13:07:39;;;;;;;;;;;34.60;36.60;;;;;;6094210;23;19921;-79
2022/06/27 13:10:06;;;;;;;;;;;34.50;36.10;;;;;;6096620;23;19925;-80
2022/06/27 13:12:32;;;;;;;;;;;34.50;36.50;;;;;;6092637;23;19921;-80
2022/06/27 13:14:59;;;;;;;;;;;34.50;37.00;;;;;;6094037;23;19922;-80
2022/06/27 13:17:26;;;;;;;;;;;34.60;37.10;;;;;;6094502;23;19929;-80
2022/06/27 13:19:53;;;;;;;;;;;34.60;36.70;;;;;;6070204;23;19921;-79
2022/06/27 13:22:19;;;;;;;;;;;34.60;36.50;;;;;;6095039;23;19925;-79
2022/06/27 13:24:46;;;;;;;;;;;34.60;36.00;;;;;;6094171;23;19921;-80
2022/06/27 13:27:13;;;;;;;;;;;34.60;37.30;;;;;;6094895;23;20231;-80
2022/06/27 13:29:41;;;;;;;;;;;34.60;37.10;;;;;;6094229;23;19928;-80
2022/06/27 13:32:08;;;;;;;;;;;34.50;36.50;;;;;;6094593;23;19987;-80
2022/06/27 13:34:34;;;;;;;;;;;34.60;36.70;;;;;;6094134;23;19930;-79
2022/06/27 13:37:13;;;;;;;;;;;34.70;36.90;;;;;;6094925;23;19921;-80
2022/06/27 13:39:40;;;;;;;;;;;34.80;37.00;;;;;;6104879;23;19927;-80
2022/06/27 13:42:07;;;;;;;;;;;35.00;37.10;;;;;;6094802;23;19921;-80
2022/06/27 13:44:35;;;;;;;;;;;35.10;36.60;;;;;;6094459;23;20445;-80
2022/06/27 13:47:02;;;;;;;;;;;35.30;37.40;;;;;;6070242;23;19957;-80
2022/06/27 13:49:29;;;;;;;;;;;35.30;35.80;;;;;;6095910;23;19922;-81
2022/06/27 13:51:56;;;;;;;;;;;35.40;36.10;;;;;;6093976;23;19921;-80
2022/06/27 13:54:23;;;;;;;;;;;35.40;36.50;;;;;;6091614;23;19922;-80
2022/06/27 13:56:50;;;;;;;;;;;35.40;36.10;;;;;;6091551;23;19980;-79
2022/06/27 13:59:19;;;;;;;;;;;35.40;36.20;;;;;;6094176;23;19928;-80
2022/06/27 14:01:47;;;;;;;;;;;35.10;35.90;;;;;;6093096;23;19921;-80
2022/06/27 14:04:13;;;;;;;;;;;35.10;36.10;;;;;;6095523;23;20370;-80
2022/06/27 14:09:26;;;;;;;;;;;35.20;37.20;;;;;;6095295;23;19933;-80
2022/06/27 14:11:52;;;;;;;;;;;35.30;36.60;;;;;;6091705;23;19972;-79
2022/06/27 14:14:19;;;;;;;;;;;35.40;36.20;;;;;;6070385;23;20334;-80
2022/06/27 14:16:46;;;;;;;;;;;35.50;36.50;;;;;;6069311;23;19956;-80
2022/06/27 14:19:16;;;;;;;;;;;35.40;36.60;;;;;;6094320;23;19928;-80
2022/06/27 14:21:43;;;;;;;;;;;35.40;36.20;;;;;;6093306;23;19921;-80
2022/06/27 14:24:11;;;;;;;;;;;35.40;35.20;;;;;;6093945;23;20257;-79
2022/06/27 14:26:38;;;;;;;;;;;35.40;35.60;;;;;;6094868;23;19921;-79
2022/06/27 14:29:05;;;;;;;;;;;35.40;36.00;;;;;;6093004;23;19921;-79
2022/06/27 14:31:31;;;;;;;;;;;35.40;36.10;;;;;;6094433;23;19921;-78
2022/06/27 14:33:58;;;;;;;;;;;35.30;34.80;;;;;;6093322;23;19921;-79
2022/06/27 14:36:26;;;;;;;;;;;35.00;36.00;;;;;;6094603;23;20319;-79
2022/06/27 14:38:53;;;;;;;;;;;35.10;36.10;;;;;;6093066;23;19953;-78